Terminal Aerodrome Forecast
Issued by NWS

Home | Current Version | Previous Version | Text Only | Print | Product List | Glossary On
Versions: 1 2 3 4 5 6 7 8 9 10 11 12 13 14 15 16 17 18 19 20 21 22 23 24 25
450
FTUS43 KGRR 211744
TAFLAN
TAF
KLAN 211744Z 2118/2218 18008KT 1/4SM FG VV002
     FM211900 18008KT 1/2SM FG OVC004
     FM212000 18008KT 2SM BR OVC006
     FM212100 17008KT 5SM BR SCT006
     FM220400 20004KT 1/2SM FG OVC015
     FM220800 VRB03KT 1/4SM FG VV001
     FM221600 02004KT 2SM BR OVC015=

USA.gov is the U.S. government's official web portal to all federal, state and local government web resources and services.